createdAt,value
2022-11-05T00:02:58.304Z,1.42
2022-11-05T00:06:20.555Z,1.60
2022-11-05T00:09:29.998Z,1.40
2022-11-05T00:12:51.412Z,1.38
2022-11-05T00:16:12.894Z,1.40
2022-11-05T00:19:17.126Z,1.40
2022-11-05T00:22:37.575Z,1.55
2022-11-05T00:25:40.235Z,1.48
2022-11-05T00:28:44.111Z,1.30
2022-11-05T00:34:50.978Z,1.20
2022-11-05T00:37:54.381Z,1.60
2022-11-05T00:40:57.174Z,1.27
2022-11-05T00:44:19.084Z,1.17
2022-11-05T00:47:40.705Z,1.60
2022-11-05T00:50:43.956Z,1.77
2022-11-05T00:53:46.452Z,1.40
2022-11-05T00:56:49.138Z,1.52
2022-11-05T00:59:51.242Z,1.52
2022-11-05T01:02:55.032Z,1.17
2022-11-05T01:06:05.460Z,1.10
2022-11-05T01:09:07.873Z,1.48
2022-11-05T01:12:10.026Z,1.67
2022-11-05T01:15:12.400Z,1.33
2022-11-05T01:18:14.534Z,1.23
2022-11-05T01:21:16.991Z,1.10
2022-11-05T01:24:19.353Z,1.50
2022-11-05T01:27:22.028Z,1.58
2022-11-05T01:30:24.527Z,1.45
2022-11-05T01:33:27.051Z,1.40
2022-11-05T01:36:30.253Z,1.23
2022-11-05T01:39:32.938Z,1.40
2022-11-05T01:42:35.816Z,1.35
2022-11-05T01:45:39.898Z,1.13
2022-11-05T01:48:42.626Z,1.17
2022-11-05T01:51:48.601Z,1.20
2022-11-05T01:54:51.193Z,1.52
2022-11-05T01:57:57.875Z,1.13
2022-11-05T02:01:00.302Z,1.27
2022-11-05T02:04:07.529Z,1.20
2022-11-05T02:07:11.080Z,1.00
2022-11-05T02:10:18.153Z,1.13
2022-11-05T02:13:20.957Z,1.23
2022-11-05T02:16:43.934Z,1.25
2022-11-05T02:20:10.409Z,1.05
2022-11-05T02:23:27.657Z,1.15
2022-11-05T02:26:53.431Z,1.27
2022-11-05T02:30:04.171Z,0.90
2022-11-05T02:33:24.519Z,1.05
2022-11-05T02:36:56.353Z,1.13
2022-11-05T02:40:05.838Z,1.40
2022-11-05T02:43:34.341Z,1.10
2022-11-05T02:46:56.334Z,1.02
2022-11-05T02:50:24.738Z,1.15
2022-11-05T02:53:38.694Z,1.23
2022-11-05T02:56:46.916Z,1.00
2022-11-05T02:59:49.001Z,1.02
2022-11-05T03:02:51.642Z,1.10
2022-11-05T03:06:04.998Z,1.20
2022-11-05T03:09:22.936Z,1.10
2022-11-05T03:12:57.274Z,0.95
2022-11-05T03:16:05.620Z,1.27
2022-11-05T03:19:10.736Z,1.15
2022-11-05T03:22:24.926Z,1.00
2022-11-05T03:25:30.619Z,1.15
2022-11-05T03:28:37.363Z,1.00
2022-11-05T03:31:40.551Z,0.95
2022-11-05T03:34:47.522Z,1.10
2022-11-05T03:37:53.965Z,1.15
2022-11-05T03:40:59.826Z,1.00
2022-11-05T03:44:06.766Z,1.10
2022-11-05T03:47:15.506Z,0.88
2022-11-05T03:50:24.365Z,1.48
2022-11-05T03:53:30.610Z,1.00
2022-11-05T03:56:38.786Z,0.90
2022-11-05T03:59:44.727Z,1.10
2022-11-05T04:02:46.785Z,1.05
2022-11-05T04:06:10.579Z,0.90
2022-11-05T04:09:31.620Z,0.85
2022-11-05T04:12:54.102Z,0.90
2022-11-05T04:16:16.401Z,1.00
2022-11-05T04:19:39.701Z,0.82
2022-11-05T04:23:00.781Z,0.80
2022-11-05T04:26:03.425Z,0.73
2022-11-05T04:29:24.613Z,0.80
2022-11-05T04:32:27.693Z,0.98
2022-11-05T04:35:46.346Z,0.85
2022-11-05T04:38:49.006Z,0.80
2022-11-05T04:41:51.905Z,0.98
2022-11-05T04:44:55.091Z,0.93
2022-11-05T04:47:57.419Z,1.10
2022-11-05T04:51:00.240Z,0.98
2022-11-05T04:54:02.387Z,0.90
2022-11-05T04:57:05.505Z,0.80
2022-11-05T05:00:09.491Z,1.53
2022-11-05T05:03:12.480Z,0.77
2022-11-05T05:06:16.285Z,0.80
2022-11-05T05:09:18.615Z,0.70
2022-11-05T05:12:22.024Z,0.73
2022-11-05T05:18:27.477Z,0.82
2022-11-05T05:21:39.545Z,0.90
2022-11-05T05:24:42.870Z,0.88
2022-11-05T05:27:45.616Z,0.60
2022-11-05T05:30:48.045Z,0.90
2022-11-05T05:33:54.533Z,0.52
2022-11-05T05:36:57.685Z,0.80
2022-11-05T05:40:00.920Z,0.70
2022-11-05T05:43:03.990Z,0.73
2022-11-05T05:46:10.660Z,0.90
2022-11-05T05:49:12.869Z,0.80
2022-11-05T05:52:15.183Z,0.90
2022-11-05T05:55:17.966Z,0.80
2022-11-05T05:58:20.974Z,0.70
2022-11-05T06:01:24.014Z,0.80
2022-11-05T06:04:27.663Z,0.70
2022-11-05T06:07:34.429Z,0.90
2022-11-05T06:10:39.552Z,0.85
2022-11-05T06:13:41.552Z,0.90
2022-11-05T06:16:44.521Z,0.80
2022-11-05T06:19:47.322Z,0.73
2022-11-05T06:22:56.969Z,0.70
2022-11-05T06:26:08.333Z,0.90
2022-11-05T06:29:11.358Z,0.98
2022-11-05T06:32:13.927Z,0.60
2022-11-05T06:35:17.193Z,0.60
2022-11-05T06:38:20.462Z,0.70
2022-11-05T06:41:23.340Z,0.80
2022-11-05T06:44:25.474Z,0.80
2022-11-05T06:47:28.431Z,0.60
2022-11-05T06:50:31.293Z,0.95
2022-11-05T06:53:34.770Z,0.85
2022-11-05T06:56:37.104Z,0.90
2022-11-05T06:59:40.267Z,1.50
2022-11-05T07:02:43.608Z,0.83
2022-11-05T07:05:49.390Z,0.93
2022-11-05T07:08:51.840Z,1.60
2022-11-05T07:11:54.961Z,1.30
2022-11-05T07:14:58.938Z,1.60
2022-11-05T07:21:04.181Z,1.10
2022-11-05T07:24:07.403Z,1.40
2022-11-05T07:27:10.162Z,1.33
2022-11-05T07:30:12.903Z,1.30
2022-11-05T07:33:15.187Z,1.10
2022-11-05T07:36:18.057Z,1.65
2022-11-05T07:39:20.686Z,1.25
2022-11-05T07:42:23.278Z,0.90
2022-11-05T07:45:26.949Z,1.30
2022-11-05T07:48:29.556Z,1.05
2022-11-05T07:51:31.514Z,1.35
2022-11-05T07:54:34.745Z,1.00
2022-11-05T07:57:51.692Z,1.13
2022-11-05T08:00:54.610Z,0.85
2022-11-05T08:03:56.856Z,0.93
2022-11-05T08:06:59.852Z,0.70
2022-11-05T08:10:04.341Z,1.10
2022-11-05T08:13:08.115Z,1.02
2022-11-05T08:16:11.082Z,0.97
2022-11-05T08:19:14.913Z,1.15
2022-11-05T08:22:17.260Z,0.90
2022-11-05T08:25:21.633Z,1.08
2022-11-05T08:28:24.894Z,1.02
2022-11-05T08:31:28.695Z,0.85
2022-11-05T08:34:30.726Z,0.70
2022-11-05T08:37:33.437Z,1.02
2022-11-05T08:40:37.310Z,1.17
2022-11-05T08:46:41.950Z,0.77
2022-11-05T08:49:44.573Z,1.10
2022-11-05T08:52:47.869Z,1.02
2022-11-05T08:58:53.836Z,0.93
2022-11-05T09:01:56.448Z,0.75
2022-11-05T09:04:58.786Z,0.70
2022-11-05T09:08:01.755Z,0.80
2022-11-05T09:11:04.166Z,0.85
2022-11-05T09:14:07.001Z,1.25
2022-11-05T09:17:17.733Z,1.23
2022-11-05T09:20:20.199Z,1.02
2022-11-05T09:23:22.616Z,0.80
2022-11-05T09:26:27.448Z,0.85
2022-11-05T09:29:29.581Z,0.75
2022-11-05T09:32:32.468Z,1.05
2022-11-05T09:35:34.821Z,0.90
2022-11-05T09:38:37.735Z,1.23
2022-11-05T09:41:44.007Z,0.60
2022-11-05T09:44:48.811Z,0.80
2022-11-05T09:48:14.933Z,0.70
2022-11-05T09:51:23.625Z,0.88
2022-11-05T09:54:32.063Z,1.00
2022-11-05T09:57:49.241Z,0.73
2022-11-05T10:00:53.076Z,0.90
2022-11-05T10:03:58.945Z,0.77
2022-11-05T10:07:04.421Z,0.90
2022-11-05T10:10:09.489Z,0.80
2022-11-05T10:13:40.564Z,0.80
2022-11-05T10:16:48.514Z,1.10
2022-11-05T10:20:10.425Z,0.68
2022-11-05T10:23:18.742Z,1.27
2022-11-05T10:26:27.160Z,0.77
2022-11-05T10:29:31.038Z,0.60
2022-11-05T10:32:39.697Z,0.90
2022-11-05T10:35:51.579Z,0.63
2022-11-05T10:38:57.534Z,0.65
2022-11-05T10:42:03.371Z,0.77
2022-11-05T10:45:43.051Z,0.73
2022-11-05T10:48:58.279Z,1.10
2022-11-05T10:52:10.589Z,0.77
2022-11-05T10:55:24.895Z,0.80
2022-11-05T10:58:32.898Z,0.80
2022-11-05T11:01:35.720Z,0.90
2022-11-05T11:04:38.449Z,0.98
2022-11-05T11:07:41.332Z,1.08
2022-11-05T11:10:57.622Z,1.00
2022-11-05T11:14:06.332Z,0.77
2022-11-05T11:17:29.801Z,0.93
2022-11-05T11:20:33.160Z,0.90
2022-11-05T11:23:40.693Z,1.15
2022-11-05T11:26:43.538Z,0.70
2022-11-05T11:29:51.029Z,0.85
2022-11-05T11:33:00.643Z,1.08
2022-11-05T11:36:03.352Z,1.10
2022-11-05T11:39:07.489Z,0.73
2022-11-05T11:42:27.893Z,1.08
2022-11-05T11:45:39.001Z,0.70
2022-11-05T11:48:42.727Z,0.93
2022-11-05T11:51:50.112Z,0.85
2022-11-05T11:54:52.992Z,0.93
2022-11-05T11:58:07.620Z,0.93
2022-11-05T12:01:09.830Z,0.90
2022-11-05T12:04:51.425Z,0.90
2022-11-05T12:07:58.223Z,0.80
2022-11-05T12:11:07.724Z,0.70
2022-11-05T12:14:34.630Z,0.68
2022-11-05T12:17:52.522Z,0.88
2022-11-05T12:21:34.856Z,0.90
2022-11-05T12:24:54.501Z,1.00
2022-11-05T12:28:29.905Z,0.93
2022-11-05T12:32:04.587Z,1.15
2022-11-05T12:35:45.675Z,1.45
2022-11-05T12:39:16.233Z,1.02
2022-11-05T12:42:34.908Z,1.20
2022-11-05T12:45:59.328Z,1.23
2022-11-05T12:49:19.446Z,1.30
2022-11-05T12:52:27.990Z,0.95
2022-11-05T12:55:48.304Z,0.93
2022-11-05T12:58:59.844Z,1.00
2022-11-05T13:02:20.575Z,1.00
2022-11-05T13:05:35.990Z,0.93
2022-11-05T13:09:17.781Z,0.82
2022-11-05T13:12:23.280Z,1.05
2022-11-05T13:15:31.415Z,0.82
2022-11-05T13:18:45.557Z,1.00
2022-11-05T13:21:58.147Z,0.90
2022-11-05T13:25:19.130Z,0.60
2022-11-05T13:28:23.708Z,1.17
2022-11-05T13:31:38.309Z,1.55
2022-11-05T13:34:41.021Z,0.70
2022-11-05T13:38:05.831Z,1.33
2022-11-05T13:41:20.119Z,1.00
2022-11-05T13:47:27.620Z,0.88
2022-11-05T13:50:56.976Z,1.10
2022-11-05T13:54:02.241Z,1.05
2022-11-05T13:57:23.264Z,1.15
2022-11-05T14:00:28.906Z,1.05
2022-11-05T14:03:32.227Z,1.20
2022-11-05T14:06:37.374Z,0.90
2022-11-05T14:09:41.212Z,1.15
2022-11-05T14:12:50.198Z,1.15
2022-11-05T14:16:09.354Z,0.70
2022-11-05T14:19:20.808Z,1.15
2022-11-05T14:22:38.171Z,1.40
2022-11-05T14:25:40.350Z,0.93
2022-11-05T14:29:22.120Z,1.45
2022-11-05T14:32:41.080Z,0.93
2022-11-05T14:35:43.998Z,0.90
2022-11-05T14:38:49.407Z,0.90
2022-11-05T14:42:40.990Z,0.93
2022-11-05T14:46:04.586Z,1.10
2022-11-05T14:49:09.719Z,0.90
2022-11-05T14:52:17.575Z,1.08
2022-11-05T14:55:28.599Z,1.27
2022-11-05T14:58:35.716Z,1.02
2022-11-05T15:01:41.167Z,0.90
2022-11-05T15:04:45.791Z,1.00
2022-11-05T15:07:57.091Z,1.17
2022-11-05T15:11:39.039Z,1.17
2022-11-05T15:15:11.396Z,0.80
2022-11-05T15:18:25.256Z,0.85
2022-11-05T15:21:32.163Z,0.98
2022-11-05T15:24:35.277Z,0.80
2022-11-05T15:27:45.831Z,0.83
2022-11-05T15:30:57.482Z,1.00
2022-11-05T15:34:14.634Z,0.93
2022-11-05T15:37:16.649Z,0.98
2022-11-05T15:40:29.090Z,1.42
2022-11-05T15:43:32.062Z,0.98
2022-11-05T15:46:34.788Z,1.00
2022-11-05T15:49:36.938Z,0.85
2022-11-05T15:52:47.900Z,1.10
2022-11-05T15:55:53.441Z,0.80
2022-11-05T15:59:00.627Z,1.08
2022-11-05T16:02:23.880Z,1.00
2022-11-05T16:05:30.223Z,1.10
2022-11-05T16:08:32.657Z,1.05
2022-11-05T16:11:35.507Z,0.88
2022-11-05T16:14:37.900Z,1.65
2022-11-05T16:17:46.883Z,2.20
2022-11-05T16:21:19.003Z,2.03
2022-11-05T16:24:29.073Z,1.70
2022-11-05T16:27:32.037Z,1.95
2022-11-05T16:30:34.597Z,1.13
2022-11-05T16:33:45.577Z,2.40
2022-11-05T16:36:49.177Z,1.50
2022-11-05T16:39:52.454Z,1.40
2022-11-05T16:42:55.317Z,1.52
2022-11-05T16:45:59.813Z,1.15
2022-11-05T16:49:03.181Z,1.10
2022-11-05T16:52:12.967Z,1.10
2022-11-05T16:55:16.621Z,1.10
2022-11-05T16:58:21.944Z,1.13
2022-11-05T17:01:27.939Z,1.50
2022-11-05T17:04:30.395Z,1.50
2022-11-05T17:07:38.503Z,1.10
2022-11-05T17:10:43.862Z,1.20
2022-11-05T17:13:47.242Z,1.40
2022-11-05T17:16:50.009Z,1.20
2022-11-05T17:19:53.005Z,1.27
2022-11-05T17:22:57.151Z,1.20
2022-11-05T17:26:06.991Z,1.45
2022-11-05T17:29:09.186Z,1.50
2022-11-05T17:32:11.859Z,1.30
2022-11-05T17:35:14.530Z,1.67
2022-11-05T17:38:17.795Z,1.85
2022-11-05T17:41:22.889Z,1.48
2022-11-05T17:44:25.579Z,1.58
2022-11-05T17:47:27.955Z,1.58
2022-11-05T17:50:30.959Z,1.45
2022-11-05T17:53:33.132Z,1.70
2022-11-05T17:56:40.281Z,2.30
2022-11-05T17:59:49.050Z,1.50
2022-11-05T18:02:55.179Z,1.85
2022-11-05T18:06:05.862Z,1.85
2022-11-05T18:09:10.301Z,1.80
2022-11-05T18:12:12.351Z,1.42
2022-11-05T18:15:15.281Z,1.50
2022-11-05T18:18:17.973Z,1.85
2022-11-05T18:21:20.412Z,2.08
2022-11-05T18:24:23.215Z,2.05
2022-11-05T18:27:27.776Z,1.95
2022-11-05T18:30:30.142Z,3.00
2022-11-05T18:33:33.755Z,1.65
2022-11-05T18:36:37.141Z,1.60
2022-11-05T18:39:39.944Z,1.60
2022-11-05T18:42:42.406Z,1.80
2022-11-05T18:45:44.875Z,2.22
2022-11-05T18:48:47.135Z,2.20
2022-11-05T18:51:50.883Z,2.45
2022-11-05T18:54:52.956Z,1.67
2022-11-05T19:18:56.630Z,2.30
2022-11-05T19:22:02.459Z,1.90
2022-11-05T19:25:05.929Z,1.83
2022-11-05T19:28:08.852Z,2.72
2022-11-05T19:31:20.169Z,2.20
2022-11-05T19:34:22.817Z,1.50
2022-11-05T19:37:25.880Z,1.88
2022-11-05T19:40:30.479Z,1.48
2022-11-05T19:43:36.028Z,1.83
2022-11-05T19:46:46.765Z,1.73
2022-11-05T19:49:54.698Z,2.20
2022-11-05T19:52:57.454Z,1.70
2022-11-05T19:56:00.275Z,2.88
2022-11-05T19:59:05.120Z,2.40
2022-11-05T20:02:13.307Z,1.80
2022-11-05T20:05:18.988Z,1.67
2022-11-05T20:08:21.269Z,2.38
2022-11-05T20:11:24.830Z,2.08
2022-11-05T20:14:27.639Z,1.63
2022-11-05T20:17:30.599Z,1.92
2022-11-05T20:20:33.281Z,1.80
2022-11-05T20:23:36.599Z,1.70
2022-11-05T20:26:38.889Z,2.10
2022-11-05T20:29:41.595Z,1.40
2022-11-05T20:32:44.105Z,1.50
2022-11-05T20:35:47.308Z,1.45
2022-11-05T20:38:51.104Z,1.77
2022-11-05T20:41:53.715Z,2.33
2022-11-05T20:44:55.904Z,2.20
2022-11-05T20:47:58.709Z,1.30
2022-11-05T20:51:11.113Z,1.80
2022-11-05T20:54:13.838Z,1.77
2022-11-05T20:57:16.266Z,1.83
2022-11-05T21:00:19.488Z,1.70
2022-11-05T21:03:23.012Z,1.67
2022-11-05T21:06:26.821Z,1.70
2022-11-05T21:09:29.108Z,1.88
2022-11-05T21:12:31.878Z,2.15
2022-11-05T21:15:33.972Z,1.90
2022-11-05T21:18:39.091Z,1.50
2022-11-05T21:24:45.256Z,1.73
2022-11-05T21:27:47.365Z,1.73
2022-11-05T21:30:50.233Z,2.10
2022-11-05T21:33:55.168Z,1.30
2022-11-05T21:36:58.391Z,1.92
2022-11-05T21:40:00.919Z,1.60
2022-11-05T21:43:04.090Z,1.80
2022-11-05T21:46:07.149Z,1.63
2022-11-05T21:49:11.384Z,1.58
2022-11-05T21:52:32.142Z,1.67
2022-11-05T21:55:53.489Z,2.03
2022-11-05T21:59:24.321Z,2.28
2022-11-05T22:02:29.018Z,1.90
2022-11-05T22:05:31.430Z,1.70
2022-11-05T22:08:34.207Z,1.90
2022-11-05T22:11:37.549Z,1.60
2022-11-05T22:14:41.369Z,1.90
2022-11-05T22:17:46.823Z,1.98
2022-11-05T22:20:49.447Z,1.65
2022-11-05T22:23:52.871Z,1.60
2022-11-05T22:26:55.112Z,1.85
2022-11-05T22:29:57.013Z,1.90
2022-11-05T22:33:00.130Z,2.42
2022-11-05T22:36:04.345Z,1.65
2022-11-05T22:39:08.579Z,1.40
2022-11-05T22:42:11.022Z,1.67
2022-11-05T22:45:13.974Z,1.48
2022-11-05T22:48:16.263Z,1.58
2022-11-05T22:51:25.678Z,2.10
2022-11-05T22:54:28.132Z,1.30
2022-11-05T22:57:30.960Z,1.55
2022-11-05T23:00:36.006Z,2.10
2022-11-05T23:03:40.760Z,1.70
2022-11-05T23:07:02.493Z,1.33
2022-11-05T23:10:23.550Z,1.60
2022-11-05T23:13:26.225Z,1.33
2022-11-05T23:16:47.662Z,1.60
2022-11-05T23:20:08.305Z,1.50
2022-11-05T23:23:30.210Z,1.92
2022-11-05T23:26:51.650Z,1.60
2022-11-05T23:29:57.603Z,1.60
2022-11-05T23:32:59.869Z,1.48
2022-11-05T23:36:21.284Z,1.80
2022-11-05T23:39:23.563Z,1.42
2022-11-05T23:42:45.756Z,2.05
2022-11-05T23:46:06.319Z,1.30
2022-11-05T23:49:09.932Z,1.08
2022-11-05T23:52:12.166Z,2.05
2022-11-05T23:55:14.892Z,1.50
2022-11-05T23:58:17.886Z,1.30
